Main page
METAR-TAF:

METAR-TAF

Airports :

Balad, Iraq

Balad Air Base

latitude: 33-56N, longitude: 44-22E, elevation: 49 m

Current weather observation

The report was made 46 minutes ago, at 02:55 UTC
Calm wind
Temperature 22°C
Humidity 33%
Pressure 1009 hPa
Visibility: 9000 m
Few clouds at a height of 1000 ft
Few clouds at a height of 15000 ft
haze

METAR: ORBD 290255Z 00000KT 9000 HZ FEW010 FEW150 22/05 A2981 RMK FU FEW010 SLP091 WND DATA/ALSTG/SLP ESTMD 52006

Time: 06:41 (03:41 UTC)

Forecast

Forecast valid from 29 at 03 UTC to 30 at 09 UTC
Wind 6 kt from the Northwest
Visibility 10 km or more
Few clouds at a height of 28000 ft
Temporary
from 29 at 06 UTC to 29 at 16 UTC
Wind 10 kt from the Northwest with gusts up to 15 kt, varying between West/Northwest and Northeast
Visibility: 9000 m
Scattered clouds at a height of 28000 ft
haze

TAF: ORBD 2903/3009 32006KT 9999 FEW280 QNH2980INS TEMPO 2906/2916 32010G15KT 9000 HZ SCT280 WND 300V040 TX38/2912Z TN23/2904Z

Weather observations and forecasts of more than 4000 airports (METAR and TAF reports).

The available stations are represented by yellow and red dots on the map.

Hover mouse over dot to see the name of the station.

Then click to see weather observations and forecasts.

To change the map : click on the green buttons with a black cross to zoom in, on the green button with a dash to zoom out, or on the green arrows for adjacent maps.


METAR-TAF: